Time;durP1;ratioP1;P1;durP2;ratioP2;P2;SDS_P1;SDS_P2;PMS_P1;PMS_P2;Temp;Humidity;BMP_temperature;BMP_pressure;BME280_temperature;BME280_humidity;BME280_pressure;Samples;Min_cycle;Max_cycle;Signal;HPM_P1;HPM_P2
2021/03/31 00:02:03;;;;;;;26.77;10.97;;;16.30;1.00;;;;;;5065095;28;20260;-80
2021/03/31 00:04:29;;;;;;;25.67;10.90;;;16.30;1.00;;;;;;5064217;28;20662;-79
2021/03/31 00:06:54;;;;;;;27.00;11.00;;;16.20;1.00;;;;;;5066037;28;20175;-79
2021/03/31 00:09:20;;;;;;;29.33;11.47;;;16.20;1.00;;;;;;5065239;28;20166;-83
2021/03/31 00:11:45;;;;;;;25.87;11.63;;;16.20;1.00;;;;;;5083538;28;20270;-85
2021/03/31 00:14:13;;;;;;;30.40;11.10;;;16.10;1.00;;;;;;5084004;28;20586;-79
2021/03/31 00:16:39;;;;;;;25.53;10.50;;;16.20;1.00;;;;;;5082345;28;20178;-83
2021/03/31 00:19:04;;;;;;;25.57;10.20;;;16.20;1.00;;;;;;5082876;28;20181;-82
2021/03/31 00:21:30;;;;;;;28.00;10.30;;;16.20;1.00;;;;;;5083964;28;20511;-80
2021/03/31 00:23:55;;;;;;;29.20;11.40;;;16.10;1.00;;;;;;5082013;28;20175;-81
2021/03/31 00:26:21;;;;;;;26.03;10.73;;;16.00;1.00;;;;;;5083588;28;20179;-82
2021/03/31 00:28:47;;;;;;;30.10;11.57;;;16.00;1.00;;;;;;5083688;28;20196;-77
2021/03/31 00:31:12;;;;;;;24.07;10.27;;;16.00;1.00;;;;;;5082534;28;20164;-80
2021/03/31 00:33:38;;;;;;;27.37;11.17;;;16.00;1.00;;;;;;5065438;28;20167;-82
2021/03/31 00:36:05;;;;;;;25.43;10.80;;;16.00;1.00;;;;;;5085362;28;20207;-83
2021/03/31 00:38:31;;;;;;;27.43;10.80;;;16.00;1.00;;;;;;5072375;28;20182;-84
2021/03/31 00:40:57;;;;;;;21.33;11.03;;;16.00;1.00;;;;;;5093281;28;20172;-81
2021/03/31 00:43:23;;;;;;;27.97;10.93;;;15.90;1.00;;;;;;5092435;28;20195;-80
2021/03/31 00:45:50;;;;;;;21.37;11.17;;;15.90;1.00;;;;;;5074528;28;20171;-82
2021/03/31 00:48:16;;;;;;;21.60;10.03;;;15.90;1.00;;;;;;5092918;28;20259;-86
2021/03/31 00:50:47;;;;;;;23.87;10.10;;;15.80;1.00;;;;;;5074587;28;20655;-80
2021/03/31 00:53:16;;;;;;;24.33;11.87;;;15.80;1.00;;;;;;5074913;28;20205;-83
2021/03/31 00:55:42;;;;;;;28.27;11.43;;;15.70;1.00;;;;;;5092869;28;20214;-83
2021/03/31 00:58:08;;;;;;;23.47;10.47;;;15.60;1.00;;;;;;5092630;28;20163;-81
2021/03/31 01:00:34;;;;;;;24.37;10.57;;;15.40;1.00;;;;;;5092879;28;20174;-81
2021/03/31 01:03:00;;;;;;;22.23;10.77;;;15.40;1.00;;;;;;5092820;28;20171;-83
2021/03/31 01:05:29;;;;;;;31.83;11.37;;;15.50;1.00;;;;;;5092473;28;20229;-84
2021/03/31 01:07:55;;;;;;;22.33;10.20;;;15.50;1.00;;;;;;5092783;28;20168;-80
2021/03/31 01:10:40;;;;;;;28.17;10.77;;;15.40;1.00;;;;;;5094609;28;20170;-84
2021/03/31 01:13:17;;;;;;;21.27;10.47;;;15.40;1.00;;;;;;5096925;28;20268;-82
2021/03/31 01:16:00;;;;;;;21.17;10.53;;;15.40;1.00;;;;;;5096206;28;20205;-81
2021/03/31 01:18:48;;;;;;;20.87;10.73;;;15.30;1.00;;;;;;5096463;28;20174;-79
2021/03/31 01:21:41;;;;;;;19.07;10.13;;;15.40;1.00;;;;;;5096241;28;20617;-83
2021/03/31 01:24:40;;;;;;;17.63;10.00;;;15.30;1.00;;;;;;5096409;28;20611;-84
2021/03/31 01:27:13;;;;;;;23.53;10.57;;;15.20;1.00;;;;;;5096052;28;20174;-85
2021/03/31 01:29:51;;;;;;;18.63;9.90;;;15.10;1.00;;;;;;5096315;28;20324;-81
2021/03/31 01:32:37;;;;;;;20.93;10.70;;;15.10;1.00;;;;;;5078209;28;20179;-80
2021/03/31 01:35:12;;;;;;;20.90;10.80;;;15.10;1.00;;;;;;5096191;28;20217;-82
2021/03/31 01:37:49;;;;;;;22.10;9.90;;;15.00;1.00;;;;;;5096422;28;20164;-82
2021/03/31 01:40:18;;;;;;;22.73;10.30;;;14.90;1.00;;;;;;5095923;28;20168;-81
2021/03/31 01:42:54;;;;;;;22.13;10.40;;;14.90;1.00;;;;;;5077939;28;20195;-79
2021/03/31 01:45:24;;;;;;;18.93;10.33;;;15.00;1.00;;;;;;5078046;28;20174;-79
2021/03/31 01:47:51;;;;;;;21.33;9.93;;;15.00;1.00;;;;;;5078123;28;20174;-81
2021/03/31 01:50:16;;;;;;;25.33;11.13;;;15.00;1.00;;;;;;5095456;28;20253;-83
2021/03/31 01:52:43;;;;;;;18.47;10.90;;;15.00;1.00;;;;;;5096074;28;20220;-84
2021/03/31 01:55:13;;;;;;;20.67;10.17;;;15.00;1.00;;;;;;5095451;28;20207;-82
2021/03/31 01:57:40;;;;;;;17.77;10.83;;;14.90;1.00;;;;;;5096094;28;20171;-82
2021/03/31 02:00:08;;;;;;;17.00;10.27;;;14.80;1.00;;;;;;5095963;28;20565;-85
2021/03/31 02:02:34;;;;;;;18.47;10.27;;;14.80;1.00;;;;;;5077957;28;20220;-84
2021/03/31 02:05:01;;;;;;;18.53;10.40;;;14.90;1.00;;;;;;5095951;28;20583;-84
2021/03/31 02:07:28;;;;;;;19.23;10.37;;;14.80;1.00;;;;;;5095829;28;20685;-79
2021/03/31 02:09:55;;;;;;;18.27;10.70;;;14.80;1.00;;;;;;5095189;28;20206;-85
2021/03/31 02:12:25;;;;;;;16.83;10.20;;;14.70;1.00;;;;;;5077779;28;20206;-84
2021/03/31 02:14:53;;;;;;;19.00;10.60;;;14.70;1.00;;;;;;5095425;28;20212;-83
2021/03/31 02:17:21;;;;;;;19.77;9.97;;;14.70;6.90;;;;;;5095717;28;20197;-80
2021/03/31 02:19:48;;;;;;;18.10;10.53;;;14.60;18.30;;;;;;5095576;28;20173;-83
2021/03/31 02:22:22;;;;;;;20.57;11.00;;;14.60;58.10;;;;;;5077743;28;20178;-83
2021/03/31 02:24:49;;;;;;;17.87;11.00;;;14.50;89.80;;;;;;5077181;28;20175;-83
2021/03/31 02:27:16;;;;;;;15.80;10.20;;;14.40;99.90;;;;;;5095446;28;20203;-82
2021/03/31 02:29:45;;;;;;;19.20;10.60;;;14.30;99.90;;;;;;5095355;28;20172;-83
2021/03/31 02:32:13;;;;;;;22.30;10.83;;;14.20;99.90;;;;;;5077012;28;20168;-81
2021/03/31 02:34:39;;;;;;;17.07;10.30;;;14.10;99.90;;;;;;5077106;28;20208;-82
2021/03/31 02:37:05;;;;;;;18.20;10.77;;;14.20;99.90;;;;;;5076774;28;20202;-82
2021/03/31 02:39:35;;;;;;;21.53;11.23;;;14.20;99.90;;;;;;5094513;28;20207;-83
2021/03/31 02:42:04;;;;;;;14.87;10.73;;;14.20;99.90;;;;;;5094924;28;20650;-83
2021/03/31 02:44:31;;;;;;;17.63;10.93;;;14.30;99.90;;;;;;5077749;28;20179;-82
2021/03/31 02:47:00;;;;;;;17.23;10.80;;;14.30;99.90;;;;;;5078156;28;20175;-82
2021/03/31 02:49:28;;;;;;;17.37;10.60;;;14.10;99.90;;;;;;5063641;28;20176;-82
2021/03/31 02:51:55;;;;;;;18.63;10.53;;;14.00;99.90;;;;;;5097057;28;20175;-82
2021/03/31 02:54:22;;;;;;;17.20;11.23;;;14.10;99.90;;;;;;5076887;28;20199;-86
2021/03/31 02:56:48;;;;;;;15.67;11.73;;;14.10;99.90;;;;;;5094825;28;20246;-82
2021/03/31 02:59:16;;;;;;;16.73;10.27;;;14.20;99.90;;;;;;5094706;28;20164;-82
2021/03/31 03:01:42;;;;;;;23.13;11.10;;;14.20;99.90;;;;;;5094464;28;20176;-83
2021/03/31 03:04:09;;;;;;;16.50;11.00;;;14.20;99.90;;;;;;5076840;28;20578;-83
2021/03/31 03:06:34;;;;;;;17.27;11.33;;;14.10;99.90;;;;;;5095634;28;20594;-81
2021/03/31 03:09:04;;;;;;;17.30;11.47;;;14.10;99.90;;;;;;5097376;28;20168;-79
2021/03/31 03:11:32;;;;;;;17.67;11.50;;;14.10;99.90;;;;;;5077959;28;20264;-81
2021/03/31 03:14:00;;;;;;;20.10;11.63;;;14.00;99.90;;;;;;5094762;28;20167;-79
2021/03/31 03:16:26;;;;;;;17.57;11.40;;;14.00;99.90;;;;;;5094285;28;20176;-78
2021/03/31 03:18:52;;;;;;;18.93;11.27;;;14.20;99.90;;;;;;5076062;28;20174;-84
2021/03/31 03:21:18;;;;;;;17.20;11.70;;;14.20;99.90;;;;;;5075820;28;20172;-85
2021/03/31 03:23:44;;;;;;;20.13;11.97;;;14.20;99.90;;;;;;5094181;28;20178;-79
2021/03/31 03:26:17;;;;;;;18.77;11.43;;;14.20;99.90;;;;;;5076268;28;20188;-79
2021/03/31 03:28:47;;;;;;;21.57;11.13;;;14.20;99.90;;;;;;5094255;28;20213;-79
2021/03/31 03:31:14;;;;;;;22.63;11.37;;;14.20;99.90;;;;;;5094216;28;20164;-78
2021/03/31 03:33:40;;;;;;;23.90;11.77;;;14.10;99.90;;;;;;5093541;28;20173;-81
2021/03/31 03:36:09;;;;;;;21.37;11.73;;;14.00;99.90;;;;;;5093770;28;20213;-83
2021/03/31 03:38:36;;;;;;;20.07;11.63;;;14.00;99.90;;;;;;5093948;28;20164;-80
2021/03/31 03:41:11;;;;;;;21.33;12.07;;;13.90;99.90;;;;;;5094217;28;20704;-82
2021/03/31 03:43:39;;;;;;;27.83;12.63;;;13.90;99.90;;;;;;5075729;28;20203;-80
2021/03/31 03:46:13;;;;;;;18.87;11.53;;;13.90;99.90;;;;;;5075551;28;20176;-80
2021/03/31 03:48:40;;;;;;;21.33;12.47;;;13.60;99.90;;;;;;5093982;28;20220;-81
2021/03/31 03:51:06;;;;;;;21.33;11.63;;;13.50;99.90;;;;;;5093456;28;20199;-85
2021/03/31 03:53:33;;;;;;;32.87;16.23;;;13.40;1.00;;;;;;5075419;28;20211;-80
2021/03/31 03:56:00;;;;;;;28.10;16.17;;;13.40;1.00;;;;;;5093699;28;20232;-85
2021/03/31 03:58:26;;;;;;;20.63;12.13;;;13.40;1.00;;;;;;5094079;28;20619;-84
2021/03/31 04:01:01;;;;;;;26.60;12.10;;;13.30;1.00;;;;;;5093539;28;20284;-78
2021/03/31 04:03:27;;;;;;;22.43;12.43;;;13.40;1.00;;;;;;5075508;28;20252;-85
2021/03/31 04:05:52;;;;;;;28.87;13.87;;;13.50;1.00;;;;;;5093073;28;20282;-84
2021/03/31 04:08:18;;;;;;;31.50;12.33;;;13.50;99.90;;;;;;5093393;28;20226;-82
2021/03/31 04:10:48;;;;;;;18.20;11.70;;;13.50;1.00;;;;;;5075654;28;20181;-84
2021/03/31 04:13:13;;;;;;;21.73;11.90;;;13.50;99.90;;;;;;5093404;28;20172;-81
2021/03/31 04:15:43;;;;;;;23.93;12.33;;;13.50;99.90;;;;;;5093721;28;20208;-85
2021/03/31 04:18:11;;;;;;;25.17;12.27;;;13.30;99.90;;;;;;5093584;28;20568;-82
2021/03/31 04:20:37;;;;;;;21.03;12.77;;;13.30;1.00;;;;;;5093235;28;20258;-83
2021/03/31 04:23:03;;;;;;;26.47;12.63;;;13.20;1.00;;;;;;5093513;28;20195;-85
2021/03/31 04:25:28;;;;;;;25.33;12.67;;;13.30;1.00;;;;;;5075096;28;20546;-80
2021/03/31 04:27:56;;;;;;;20.73;12.33;;;13.20;1.00;;;;;;5074320;28;20191;-83
2021/03/31 04:30:23;;;;;;;23.97;12.70;;;13.40;1.00;;;;;;5093070;28;20241;-82
2021/03/31 04:32:50;;;;;;;20.97;12.80;;;13.40;99.90;;;;;;5093271;28;20168;-83
2021/03/31 04:35:18;;;;;;;22.93;14.07;;;13.30;1.00;;;;;;5075064;28;20264;-83
2021/03/31 04:37:44;;;;;;;25.70;12.90;;;13.10;1.00;;;;;;5093481;28;20163;-83
2021/03/31 04:40:12;;;;;;;23.37;13.03;;;13.00;1.00;;;;;;5074749;28;20194;-79
2021/03/31 04:42:37;;;;;;;25.27;13.67;;;12.90;1.00;;;;;;5074664;28;20685;-82
2021/03/31 04:45:08;;;;;;;24.87;12.53;;;12.90;1.00;;;;;;5096799;28;20168;-84
2021/03/31 04:47:35;;;;;;;25.40;13.97;;;13.10;1.00;;;;;;5097703;28;20251;-82
2021/03/31 04:50:02;;;;;;;25.73;13.63;;;13.20;1.00;;;;;;5078975;28;20176;-84
2021/03/31 04:52:29;;;;;;;21.90;13.67;;;13.10;1.00;;;;;;5098020;28;20171;-80
2021/03/31 04:54:55;;;;;;;19.13;13.77;;;13.30;1.00;;;;;;5079534;28;20195;-81
2021/03/31 04:57:21;;;;;;;22.83;13.67;;;13.10;1.00;;;;;;5097837;28;20206;-80
2021/03/31 04:59:47;;;;;;;22.40;13.20;;;13.20;1.00;;;;;;5079580;28;20171;-81
2021/03/31 05:02:12;;;;;;;23.47;13.80;;;13.10;1.00;;;;;;5079729;28;20184;-79
2021/03/31 05:04:38;;;;;;;23.13;13.70;;;13.10;1.00;;;;;;5097815;28;20247;-81
2021/03/31 05:07:04;;;;;;;26.27;14.37;;;12.90;1.00;;;;;;5096449;28;20698;-82
2021/03/31 05:09:30;;;;;;;23.00;13.43;;;13.00;1.00;;;;;;5096219;28;20182;-79
2021/03/31 05:11:55;;;;;;;22.60;13.87;;;13.10;1.00;;;;;;5079074;28;20196;-85
2021/03/31 05:14:22;;;;;;;25.00;14.77;;;13.20;1.00;;;;;;5097152;28;20160;-81
2021/03/31 05:16:47;;;;;;;26.00;13.93;;;13.20;1.00;;;;;;5097672;28;20619;-85
2021/03/31 05:19:13;;;;;;;25.90;13.77;;;13.30;1.00;;;;;;5080304;28;20167;-83
2021/03/31 05:21:39;;;;;;;23.03;13.80;;;13.20;1.00;;;;;;5099254;28;20201;-83
2021/03/31 05:24:05;;;;;;;33.23;15.07;;;13.20;1.00;;;;;;5096833;28;20647;-79
2021/03/31 05:26:31;;;;;;;27.30;12.87;;;13.10;1.00;;;;;;5099041;28;20184;-81
2021/03/31 05:28:57;;;;;;;26.10;13.83;;;13.10;1.00;;;;;;5099833;28;20684;-80
2021/03/31 05:31:23;;;;;;;26.00;13.77;;;13.10;1.00;;;;;;5096633;28;20724;-85
2021/03/31 05:33:49;;;;;;;29.47;14.37;;;13.20;1.00;;;;;;5078526;28;20179;-82
2021/03/31 05:36:15;;;;;;;38.60;14.33;;;13.00;1.00;;;;;;5095834;28;20271;-81
2021/03/31 05:38:41;;;;;;;35.40;15.37;;;12.90;1.00;;;;;;5078794;28;20176;-84
2021/03/31 05:41:08;;;;;;;29.90;14.63;;;12.80;1.00;;;;;;5078149;28;20578;-83
2021/03/31 05:43:35;;;;;;;33.40;15.07;;;12.70;22.10;;;;;;5097130;28;20188;-81
2021/03/31 05:46:01;;;;;;;26.07;13.67;;;12.80;1.00;;;;;;5095724;28;20176;-84
2021/03/31 05:48:27;;;;;;;29.47;13.50;;;12.70;2.10;;;;;;5096021;28;20217;-84
2021/03/31 05:50:53;;;;;;;32.57;14.67;;;12.70;1.00;;;;;;5095467;28;20167;-84
2021/03/31 05:53:18;;;;;;;29.93;13.87;;;12.80;1.00;;;;;;5095660;28;20175;-86
2021/03/31 05:55:44;;;;;;;26.50;13.90;;;12.80;1.00;;;;;;5094533;28;20207;-84
2021/03/31 05:58:11;;;;;;;35.73;13.83;;;12.90;1.00;;;;;;5095139;28;20160;-83
2021/03/31 06:00:36;;;;;;;38.23;14.53;;;13.00;1.00;;;;;;5095439;28;20164;-85
2021/03/31 06:03:04;;;;;;;29.97;15.07;;;13.00;1.00;;;;;;5095533;28;20175;-83
2021/03/31 06:05:32;;;;;;;27.57;14.50;;;13.00;1.00;;;;;;5076744;28;20587;-80
2021/03/31 06:07:58;;;;;;;35.33;14.87;;;13.00;1.00;;;;;;5077241;28;20210;-79
2021/03/31 06:10:26;;;;;;;27.93;14.77;;;13.10;1.00;;;;;;5095053;28;20203;-81
2021/03/31 06:12:52;;;;;;;26.10;13.73;;;13.20;99.90;;;;;;5095473;28;20178;-86
2021/03/31 06:15:29;;;;;;;31.63;14.00;;;13.20;99.90;;;;;;5094879;28;20199;-82
2021/03/31 06:18:00;;;;;;;37.20;14.20;;;13.20;99.90;;;;;;5095180;28;20212;-83
2021/03/31 06:20:44;;;;;;;30.77;13.97;;;13.20;99.90;;;;;;5095262;28;20172;-84
2021/03/31 06:23:50;;;;;;;29.97;14.53;;;13.30;99.90;;;;;;5094700;28;20178;-81
2021/03/31 06:26:30;;;;;;;26.03;12.83;;;13.20;99.90;;;;;;5094318;28;20163;-79
2021/03/31 06:28:59;;;;;;;28.27;14.00;;;13.30;99.90;;;;;;5076138;28;20179;-80
2021/03/31 06:31:33;;;;;;;28.90;14.53;;;13.20;99.90;;;;;;5076400;28;20178;-85
2021/03/31 06:34:15;;;;;;;27.00;13.27;;;13.30;99.90;;;;;;5092770;28;20246;-85
2021/03/31 06:36:55;;;;;;;30.73;14.67;;;13.40;99.90;;;;;;5076354;28;20187;-86
2021/03/31 06:39:25;;;;;;;31.80;14.00;;;13.60;99.90;;;;;;5086955;28;20643;-79
2021/03/31 06:41:56;;;;;;;27.70;13.90;;;13.60;99.90;;;;;;5077084;28;20200;-80
2021/03/31 06:44:39;;;;;;;37.83;15.80;;;13.50;99.90;;;;;;5086902;28;20172;-83
2021/03/31 06:49:37;;;;;;;29.07;14.87;;;13.60;99.90;;;;;;5083902;28;20194;-82
2021/03/31 06:52:08;;;;;;;35.03;16.07;;;13.60;99.90;;;;;;5075534;28;20253;-81
2021/03/31 06:54:46;;;;;;;34.47;15.57;;;13.80;99.90;;;;;;5055732;28;20201;-83
2021/03/31 06:57:14;;;;;;;32.00;15.40;;;13.80;99.90;;;;;;5072364;28;20195;-81
2021/03/31 06:59:40;;;;;;;27.73;15.00;;;13.90;99.90;;;;;;5071798;28;20278;-82
2021/03/31 07:02:07;;;;;;;34.30;14.97;;;13.90;94.70;;;;;;5056362;28;20229;-82
2021/03/31 07:04:34;;;;;;;29.33;15.40;;;14.00;75.90;;;;;;5073591;28;20344;-81
2021/03/31 07:07:10;;;;;;;33.03;14.37;;;14.30;1.00;;;;;;5054252;28;20169;-81
2021/03/31 07:09:40;;;;;;;44.43;16.53;;;14.40;1.00;;;;;;5073147;28;20172;-81
2021/03/31 07:12:22;;;;;;;30.33;14.10;;;14.60;1.00;;;;;;5072908;28;20262;-81
2021/03/31 07:14:49;;;;;;;32.47;14.37;;;14.70;1.00;;;;;;5072904;28;20188;-81
2021/03/31 07:17:21;;;;;;;28.90;14.10;;;14.80;1.00;;;;;;5074163;28;20180;-81
2021/03/31 07:19:48;;;;;;;26.13;13.63;;;14.90;1.00;;;;;;5055043;28;20203;-80
2021/03/31 07:22:14;;;;;;;25.27;14.03;;;15.00;1.00;;;;;;5072920;28;20174;-83
2021/03/31 07:24:40;;;;;;;27.47;14.23;;;15.00;1.00;;;;;;5055409;28;20632;-84
2021/03/31 07:27:08;;;;;;;26.57;13.13;;;15.10;1.00;;;;;;5072823;28;20175;-82
2021/03/31 07:29:36;;;;;;;26.97;13.27;;;15.20;1.00;;;;;;5072501;28;20539;-83
2021/03/31 07:32:02;;;;;;;27.03;13.70;;;15.30;1.00;;;;;;5072948;28;20168;-81
2021/03/31 07:34:30;;;;;;;26.67;13.60;;;15.40;1.00;;;;;;5072984;28;20170;-81
2021/03/31 07:36:57;;;;;;;24.03;13.03;;;15.60;1.00;;;;;;5072851;28;20176;-81
2021/03/31 07:39:28;;;;;;;26.13;13.00;;;15.90;1.00;;;;;;5072215;28;20218;-81
2021/03/31 07:41:55;;;;;;;21.63;12.23;;;16.00;1.00;;;;;;5053436;28;20248;-82
2021/03/31 07:44:33;;;;;;;25.07;12.20;;;16.10;1.00;;;;;;5072265;28;20648;-82
2021/03/31 07:47:00;;;;;;;29.10;11.83;;;16.30;1.00;;;;;;5065884;28;20174;-83
2021/03/31 07:49:27;;;;;;;18.60;10.97;;;16.20;1.00;;;;;;5074467;28;20182;-79
2021/03/31 07:51:55;;;;;;;21.63;11.03;;;16.40;1.00;;;;;;5074636;28;20183;-82
2021/03/31 07:54:21;;;;;;;20.10;10.37;;;16.50;99.90;;;;;;5092624;28;20541;-80
2021/03/31 07:56:47;;;;;;;18.37;10.17;;;16.50;99.90;;;;;;5092369;28;20175;-80
2021/03/31 07:59:18;;;;;;;18.83;9.90;;;16.40;99.90;;;;;;5092597;28;20172;-81
2021/03/31 08:01:51;;;;;;;15.83;9.30;;;16.60;99.90;;;;;;5087668;28;20214;-82
2021/03/31 08:04:19;;;;;;;19.20;9.20;;;16.70;99.90;;;;;;5068450;28;20225;-82
2021/03/31 08:06:46;;;;;;;17.40;9.70;;;16.70;99.90;;;;;;5058410;28;20647;-80
2021/03/31 08:09:21;;;;;;;19.90;9.90;;;16.70;99.90;;;;;;5073947;28;20196;-82
2021/03/31 08:11:53;;;;;;;21.30;10.10;;;16.80;99.90;;;;;;5092798;28;20198;-87
2021/03/31 08:14:40;;;;;;;21.23;10.20;;;16.90;99.90;;;;;;5092455;28;20647;-85
2021/03/31 08:17:09;;;;;;;19.70;9.47;;;17.00;99.90;;;;;;5074863;28;20198;-85
2021/03/31 08:19:39;;;;;;;18.97;9.83;;;17.50;99.90;;;;;;5057518;28;20214;-85
2021/03/31 08:22:38;;;;;;;23.20;10.77;;;17.50;99.90;;;;;;5054725;28;20610;-90
2021/03/31 08:25:18;;;;;;;25.03;12.60;;;17.80;99.90;;;;;;5012138;28;20333;-84
2021/03/31 08:27:54;;;;;;;21.87;10.30;;;17.90;99.90;;;;;;5053933;28;20652;-82
2021/03/31 08:30:20;;;;;;;27.07;11.33;;;18.00;99.90;;;;;;5072229;28;20164;-83
2021/03/31 08:32:46;;;;;;;23.40;10.37;;;18.00;99.90;;;;;;5059274;28;20192;-81
2021/03/31 08:35:12;;;;;;;25.40;11.60;;;18.30;99.90;;;;;;5068443;28;20221;-79
2021/03/31 08:37:38;;;;;;;25.23;11.70;;;18.40;99.90;;;;;;5072177;28;20170;-85
2021/03/31 08:40:07;;;;;;;18.53;11.23;;;18.40;99.90;;;;;;5063661;28;20243;-84
2021/03/31 08:42:33;;;;;;;23.83;12.17;;;18.30;99.90;;;;;;5073318;28;20198;-80
2021/03/31 08:45:03;;;;;;;24.23;11.37;;;18.50;99.90;;;;;;5091311;28;20167;-85
2021/03/31 08:47:31;;;;;;;29.80;12.60;;;18.30;99.90;;;;;;5075477;28;20164;-79
2021/03/31 08:50:08;;;;;;;21.33;12.30;;;18.40;99.90;;;;;;5092275;28;20179;-81
2021/03/31 08:52:36;;;;;;;23.43;12.27;;;18.60;99.90;;;;;;5092174;28;20189;-82
2021/03/31 08:55:13;;;;;;;17.73;11.07;;;18.80;99.90;;;;;;5077283;28;20211;-88
2021/03/31 08:57:39;;;;;;;27.40;12.67;;;19.10;99.90;;;;;;5076634;28;20184;-85
2021/03/31 09:00:08;;;;;;;21.67;12.57;;;19.30;99.90;;;;;;5095110;28;20167;-80
2021/03/31 09:02:40;;;;;;;28.20;13.63;;;19.20;99.90;;;;;;5083607;28;20225;-83
2021/03/31 09:05:06;;;;;;;24.50;12.07;;;19.30;99.90;;;;;;5087194;28;20233;-85
2021/03/31 09:07:33;;;;;;;30.40;13.43;;;19.50;99.90;;;;;;5071137;28;20227;-79
2021/03/31 09:09:59;;;;;;;27.77;13.40;;;19.70;99.90;;;;;;5062835;28;20175;-84
2021/03/31 09:12:28;;;;;;;28.63;13.40;;;19.80;99.90;;;;;;5092277;28;20295;-83
2021/03/31 09:14:55;;;;;;;31.43;13.13;;;19.80;99.90;;;;;;5091526;28;20200;-85
2021/03/31 09:17:23;;;;;;;23.33;12.87;;;20.00;99.90;;;;;;5073545;28;20174;-83
2021/03/31 09:20:00;;;;;;;22.83;12.53;;;20.00;99.90;;;;;;5091751;28;20177;-83
2021/03/31 09:22:29;;;;;;;26.77;14.13;;;19.90;99.90;;;;;;5091091;28;20169;-83
2021/03/31 09:25:06;;;;;;;30.80;14.03;;;20.10;99.90;;;;;;5091173;28;20163;-84
2021/03/31 09:27:33;;;;;;;26.23;13.07;;;20.30;99.90;;;;;;5073455;28;20215;-82
2021/03/31 09:30:05;;;;;;;25.83;13.70;;;20.50;99.90;;;;;;5090473;28;20274;-82
2021/03/31 09:35:07;;;;;;;23.33;13.30;;;20.30;99.90;;;;;;5094926;28;20197;-83
2021/03/31 09:37:51;;;;;;;27.33;14.00;;;20.20;99.90;;;;;;5095310;28;20256;-83
2021/03/31 09:40:22;;;;;;;31.07;14.40;;;20.30;99.90;;;;;;5062875;28;20178;-81
2021/03/31 09:42:55;;;;;;;23.93;13.20;;;20.50;99.90;;;;;;5073235;28;20700;-85
2021/03/31 09:45:27;;;;;;;27.07;14.83;;;20.70;99.90;;;;;;5074234;28;20527;-79
2021/03/31 09:47:55;;;;;;;23.57;14.53;;;20.70;99.90;;;;;;5074272;28;20166;-79
2021/03/31 09:50:27;;;;;;;23.40;14.80;;;20.70;99.90;;;;;;5074119;28;20306;-82
2021/03/31 09:52:54;;;;;;;28.50;14.67;;;21.00;99.90;;;;;;5073699;28;20169;-80
2021/03/31 09:55:21;;;;;;;25.70;14.77;;;21.10;99.90;;;;;;5074154;28;20743;-79
2021/03/31 09:57:50;;;;;;;26.40;14.07;;;21.20;99.90;;;;;;5074474;28;20167;-82
2021/03/31 10:00:17;;;;;;;23.43;14.07;;;21.40;99.90;;;;;;5073432;28;20583;-82
2021/03/31 10:02:44;;;;;;;25.57;14.67;;;21.30;99.90;;;;;;5056076;28;20183;-81
2021/03/31 10:05:16;;;;;;;25.27;16.40;;;21.50;99.90;;;;;;5074875;28;20174;-82
2021/03/31 10:07:42;;;;;;;26.27;15.83;;;21.60;99.90;;;;;;5074401;28;20201;-85
2021/03/31 10:10:08;;;;;;;23.30;15.40;;;21.80;99.90;;;;;;5085450;28;20223;-79
2021/03/31 10:12:35;;;;;;;26.67;16.00;;;21.70;99.90;;;;;;5076969;28;20909;-83
2021/03/31 10:15:04;;;;;;;27.40;16.83;;;21.80;99.90;;;;;;5094418;28;20213;-86
2021/03/31 10:17:32;;;;;;;25.37;16.13;;;22.00;99.90;;;;;;5094111;28;20626;-85
2021/03/31 10:20:11;;;;;;;23.93;15.40;;;22.10;99.90;;;;;;5091747;28;20223;-85
2021/03/31 10:22:38;;;;;;;30.10;16.33;;;21.90;99.90;;;;;;5093421;28;20169;-81
2021/03/31 10:25:07;;;;;;;28.80;16.90;;;22.00;99.90;;;;;;5087504;28;20282;-84
2021/03/31 10:27:42;;;;;;;29.80;17.13;;;22.10;99.90;;;;;;5063991;28;20198;-80
2021/03/31 10:30:08;;;;;;;28.27;17.40;;;22.20;99.90;;;;;;5093951;28;20165;-81
2021/03/31 10:32:34;;;;;;;27.50;16.80;;;22.30;99.90;;;;;;5094035;28;20170;-84
2021/03/31 10:35:00;;;;;;;27.43;16.03;;;22.40;99.90;;;;;;5094088;28;20201;-80
2021/03/31 10:37:39;;;;;;;29.10;17.70;;;22.50;99.90;;;;;;5094079;28;20619;-86
2021/03/31 10:53:40;;;;;;;24.03;16.17;;;23.00;99.90;;;;;;5082299;28;20193;-83
2021/03/31 10:56:06;;;;;;;28.00;17.03;;;23.20;99.90;;;;;;5054474;28;20341;-80
2021/03/31 10:58:32;;;;;;;26.63;16.60;;;23.50;99.90;;;;;;5073416;28;20263;-81
2021/03/31 11:00:58;;;;;;;24.20;15.67;;;23.40;99.90;;;;;;5073394;28;20206;-82
2021/03/31 11:03:24;;;;;;;24.43;14.53;;;23.60;99.90;;;;;;5073552;28;20185;-81
2021/03/31 11:05:51;;;;;;;28.00;15.57;;;23.60;99.90;;;;;;5073160;28;20198;-79
2021/03/31 11:08:18;;;;;;;28.07;15.60;;;23.60;99.90;;;;;;5075722;28;20604;-81
2021/03/31 11:10:44;;;;;;;26.83;15.23;;;23.70;99.90;;;;;;5074770;28;20508;-79
2021/03/31 11:13:09;;;;;;;24.33;15.73;;;23.90;99.90;;;;;;5072850;28;20658;-81
2021/03/31 11:15:35;;;;;;;27.13;15.60;;;23.90;99.90;;;;;;5073041;28;20650;-79
2021/03/31 11:25:50;;;;;;;29.20;15.40;;;24.20;99.90;;;;;;5072878;28;20219;-82
2021/03/31 11:28:17;;;;;;;25.50;15.10;;;24.20;99.90;;;;;;5054278;28;20243;-80
2021/03/31 11:30:43;;;;;;;26.93;15.80;;;24.30;99.90;;;;;;5072952;28;20166;-81
2021/03/31 11:33:09;;;;;;;23.93;15.87;;;24.40;99.90;;;;;;5072685;28;20167;-81
2021/03/31 11:35:34;;;;;;;25.63;14.90;;;24.40;99.90;;;;;;5072045;28;20294;-83
2021/03/31 11:38:00;;;;;;;26.10;15.57;;;24.20;99.90;;;;;;5071925;28;20254;-79
2021/03/31 11:40:26;;;;;;;23.03;14.33;;;24.30;99.90;;;;;;5072275;28;20178;-80
2021/03/31 11:42:52;;;;;;;27.23;14.90;;;24.30;99.90;;;;;;5072156;28;20244;-80
2021/03/31 11:45:17;;;;;;;25.10;15.43;;;24.60;99.90;;;;;;5072282;28;20168;-80
2021/03/31 11:47:43;;;;;;;25.23;15.53;;;24.50;99.90;;;;;;5072256;28;20162;-83
2021/03/31 11:50:09;;;;;;;27.43;16.00;;;24.70;99.90;;;;;;5054517;28;20180;-83
2021/03/31 11:52:35;;;;;;;23.50;14.37;;;24.50;99.90;;;;;;5072329;28;20168;-82
2021/03/31 11:55:00;;;;;;;25.10;16.73;;;24.50;99.90;;;;;;5054377;28;20206;-81
2021/03/31 11:57:26;;;;;;;30.07;15.87;;;24.50;99.90;;;;;;5054495;28;20166;-79
2021/03/31 11:59:52;;;;;;;26.93;15.93;;;24.60;99.90;;;;;;5072461;28;20194;-80
2021/03/31 12:02:17;;;;;;;31.60;17.10;;;24.70;99.90;;;;;;5071886;28;20168;-85
2021/03/31 12:04:43;;;;;;;25.57;15.90;;;24.60;99.90;;;;;;5074317;28;20168;-81
2021/03/31 12:07:09;;;;;;;26.97;16.10;;;24.50;99.90;;;;;;5076720;28;20180;-81
2021/03/31 12:09:40;;;;;;;26.03;16.40;;;24.70;99.90;;;;;;5060984;28;20629;-78
2021/03/31 12:12:08;;;;;;;26.10;15.77;;;24.80;99.90;;;;;;5072379;28;20175;-83
2021/03/31 12:14:34;;;;;;;24.90;15.40;;;24.80;99.90;;;;;;5053896;28;20172;-81
2021/03/31 12:17:01;;;;;;;24.37;15.93;;;24.70;99.90;;;;;;5072116;28;20192;-81
2021/03/31 12:19:26;;;;;;;22.33;13.17;;;24.70;99.90;;;;;;5053296;28;20198;-83
2021/03/31 12:21:53;;;;;;;21.10;12.47;;;24.90;99.90;;;;;;5070435;28;20178;-80
2021/03/31 12:24:20;;;;;;;19.17;11.67;;;25.00;99.90;;;;;;5070973;28;20192;-79
2021/03/31 12:26:45;;;;;;;27.37;15.53;;;24.90;99.90;;;;;;5071763;28;20168;-81
2021/03/31 12:29:11;;;;;;;24.73;15.43;;;24.80;99.90;;;;;;5071168;28;20255;-80
2021/03/31 12:31:37;;;;;;;20.70;13.50;;;24.70;99.90;;;;;;5071361;28;20250;-81
2021/03/31 12:34:02;;;;;;;23.77;14.00;;;24.80;99.90;;;;;;5071250;28;20174;-79
2021/03/31 12:36:28;;;;;;;20.90;12.73;;;24.90;99.90;;;;;;5052878;28;20210;-83
2021/03/31 12:38:54;;;;;;;19.37;12.37;;;24.80;99.90;;;;;;5073399;28;20226;-83
2021/03/31 12:41:20;;;;;;;23.90;14.17;;;25.00;99.90;;;;;;5091889;28;20167;-81
2021/03/31 12:43:45;;;;;;;22.00;13.33;;;25.20;99.90;;;;;;5073412;28;20646;-83
2021/03/31 12:46:11;;;;;;;23.63;15.00;;;25.30;99.90;;;;;;5073911;28;20181;-82
2021/03/31 12:48:37;;;;;;;24.47;14.47;;;25.20;99.90;;;;;;5091489;28;20179;-80
2021/03/31 12:51:07;;;;;;;26.20;14.43;;;25.30;99.90;;;;;;5091875;28;20175;-81
2021/03/31 12:53:45;;;;;;;24.40;13.43;;;25.20;99.90;;;;;;5073683;28;20189;-84
2021/03/31 12:56:11;;;;;;;20.53;13.47;;;25.40;99.90;;;;;;5091682;28;20240;-84
2021/03/31 12:58:40;;;;;;;27.77;14.00;;;25.30;99.90;;;;;;5091605;28;20175;-80
2021/03/31 13:01:26;;;;;;;22.97;14.13;;;25.30;99.90;;;;;;5091073;28;20622;-82
2021/03/31 13:03:52;;;;;;;21.93;12.73;;;25.30;99.90;;;;;;5091362;28;20163;-82
2021/03/31 13:06:20;;;;;;;22.90;12.57;;;25.50;99.90;;;;;;5095819;28;20179;-79